Time;durP1;ratioP1;P1;durP2;ratioP2;P2;SDS_P1;SDS_P2;PMS_P1;PMS_P2;Temp;Humidity;BMP_temperature;BMP_pressure;BME280_temperature;BME280_humidity;BME280_pressure;Samples;Min_cycle;Max_cycle;Signal;HPM_P1;HPM_P2
2024/01/21 00:00:59;;;;;;;15.32;6.15;;;-3.00;99.90;;;;;;5031146;28;20597;-65
2024/01/21 00:03:24;;;;;;;13.60;5.63;;;-3.00;99.90;;;;;;5033619;28;20029;-66
2024/01/21 00:05:50;;;;;;;16.67;6.03;;;-3.00;99.90;;;;;;5029845;28;20112;-65
2024/01/21 00:08:15;;;;;;;12.73;5.53;;;-3.00;99.90;;;;;;5031961;28;20446;-65
2024/01/21 00:10:41;;;;;;;15.07;6.40;;;-3.00;99.90;;;;;;5031463;28;20029;-65
2024/01/21 00:13:06;;;;;;;10.45;4.88;;;-3.10;99.90;;;;;;5029132;28;20037;-65
2024/01/21 00:15:32;;;;;;;13.18;6.28;;;-3.10;99.90;;;;;;5033155;28;20025;-65
2024/01/21 00:17:57;;;;;;;21.67;8.60;;;-3.20;99.90;;;;;;5025270;28;20029;-65
2024/01/21 00:20:23;;;;;;;14.05;6.50;;;-3.20;99.90;;;;;;5028125;28;20052;-65
2024/01/21 00:22:49;;;;;;;19.33;7.05;;;-3.20;99.90;;;;;;5032740;28;20039;-65
2024/01/21 00:25:14;;;;;;;13.98;5.80;;;-3.20;99.90;;;;;;5035319;28;20029;-64
2024/01/21 00:27:40;;;;;;;19.20;6.97;;;-3.20;99.90;;;;;;5035225;28;20068;-65
2024/01/21 00:30:06;;;;;;;15.82;5.57;;;-3.30;99.90;;;;;;5038236;28;20037;-65
2024/01/21 00:32:32;;;;;;;14.20;6.68;;;-3.30;99.90;;;;;;5036279;28;20106;-66
2024/01/21 00:34:57;;;;;;;14.70;6.47;;;-3.20;99.90;;;;;;5034230;28;20040;-65
2024/01/21 00:37:23;;;;;;;16.33;6.60;;;-3.20;99.90;;;;;;5037020;28;20396;-69
2024/01/21 00:39:48;;;;;;;16.13;6.53;;;-3.10;99.90;;;;;;5035669;28;20033;-65
2024/01/21 00:42:14;;;;;;;15.20;6.45;;;-3.10;99.90;;;;;;5030282;28;20080;-66
2024/01/21 00:44:40;;;;;;;18.10;6.97;;;-3.10;99.90;;;;;;5037129;28;20034;-66
2024/01/21 00:47:06;;;;;;;18.33;7.57;;;-3.10;99.90;;;;;;5036323;28;20028;-63
2024/01/21 00:49:32;;;;;;;13.70;6.40;;;-2.90;99.90;;;;;;5035326;28;20403;-66
2024/01/21 00:51:58;;;;;;;15.85;7.22;;;-2.90;99.90;;;;;;5038661;28;20085;-65
2024/01/21 00:54:24;;;;;;;14.48;6.82;;;-2.90;99.90;;;;;;5034066;28;20463;-66
2024/01/21 00:56:50;;;;;;;17.23;7.38;;;-2.80;99.90;;;;;;5035210;28;20403;-66
2024/01/21 00:59:15;;;;;;;15.10;6.90;;;-2.90;99.90;;;;;;5036678;28;20128;-65
2024/01/21 01:01:41;;;;;;;14.85;7.05;;;-2.90;99.90;;;;;;5041373;28;20029;-65
2024/01/21 01:04:07;;;;;;;15.75;7.47;;;-2.90;99.90;;;;;;5033203;28;21035;-65
2024/01/21 01:06:33;;;;;;;18.50;8.05;;;-2.90;99.90;;;;;;5055640;22;20026;-79
2024/01/21 01:08:59;;;;;;;18.20;7.25;;;-2.80;99.90;;;;;;5022096;28;20029;-80
2024/01/21 01:11:25;;;;;;;19.83;8.10;;;-2.80;99.90;;;;;;5021721;28;20492;-81
2024/01/21 01:13:51;;;;;;;17.95;7.95;;;-2.80;99.90;;;;;;5039744;28;20026;-79
2024/01/21 01:16:17;;;;;;;16.65;6.70;;;-2.80;99.90;;;;;;5024476;28;20017;-79
2024/01/21 01:18:42;;;;;;;17.92;7.28;;;-2.80;99.90;;;;;;5036474;28;20026;-80
2024/01/21 01:21:12;;;;;;;20.95;6.85;;;-2.80;99.90;;;;;;5041495;28;20167;-80
2024/01/21 01:23:37;;;;;;;16.60;7.47;;;-2.80;99.90;;;;;;5026244;28;20108;-79
2024/01/21 01:26:03;;;;;;;22.95;8.68;;;-2.80;99.90;;;;;;5031269;28;20068;-78
2024/01/21 01:28:31;;;;;;;15.68;6.43;;;-2.80;99.90;;;;;;5021701;28;20389;-79
2024/01/21 01:30:57;;;;;;;20.38;7.55;;;-2.80;99.90;;;;;;5023447;28;20116;-79
2024/01/21 01:33:24;;;;;;;14.80;7.53;;;-2.80;99.90;;;;;;5028232;28;20072;-79
2024/01/21 01:35:49;;;;;;;14.32;6.70;;;-2.80;99.90;;;;;;5030740;28;20102;-80
2024/01/21 01:38:15;;;;;;;14.88;7.18;;;-2.80;99.90;;;;;;5028654;28;20025;-78
2024/01/21 01:40:41;;;;;;;20.00;8.02;;;-2.70;99.90;;;;;;5043552;28;20432;-79
2024/01/21 01:43:07;;;;;;;17.33;8.73;;;-2.70;99.90;;;;;;5027889;28;20032;-79
2024/01/21 01:45:32;;;;;;;21.30;7.72;;;-2.70;99.90;;;;;;5040339;28;20021;-77
2024/01/21 01:47:58;;;;;;;17.83;7.95;;;-2.70;99.90;;;;;;5053416;28;20037;-79
2024/01/21 01:50:26;;;;;;;22.08;9.25;;;-2.70;99.90;;;;;;5022582;28;20033;-79
2024/01/21 01:52:52;;;;;;;22.52;8.85;;;-2.70;99.90;;;;;;5045159;28;20056;-78
2024/01/21 01:55:19;;;;;;;20.95;8.23;;;-2.60;99.90;;;;;;5024294;28;20358;-78
2024/01/21 01:57:46;;;;;;;18.92;7.47;;;-2.60;99.90;;;;;;5018590;28;20441;-78
2024/01/21 02:00:12;;;;;;;17.98;7.43;;;-2.60;99.90;;;;;;5027185;28;20497;-78
2024/01/21 02:02:40;;;;;;;19.17;8.00;;;-2.50;99.90;;;;;;5019896;28;20156;-78
2024/01/21 02:05:07;;;;;;;20.05;8.10;;;-2.50;99.90;;;;;;5018110;28;20475;-79
2024/01/21 02:07:33;;;;;;;14.73;6.57;;;-2.40;99.90;;;;;;5015054;28;20052;-77
2024/01/21 02:10:01;;;;;;;15.13;7.45;;;-2.40;99.90;;;;;;5036502;28;20393;-78
2024/01/21 02:12:27;;;;;;;14.13;6.38;;;-2.40;99.90;;;;;;5017395;28;20112;-77
2024/01/21 02:14:53;;;;;;;18.38;6.72;;;-2.30;99.90;;;;;;5043008;28;20037;-77
2024/01/21 02:17:18;;;;;;;18.33;7.07;;;-2.30;99.90;;;;;;5019811;28;20128;-78
2024/01/21 02:19:44;;;;;;;16.80;7.32;;;-2.30;99.90;;;;;;5025643;28;20048;-78
2024/01/21 02:22:10;;;;;;;18.85;7.25;;;-2.30;99.90;;;;;;5031896;28;20029;-79
2024/01/21 02:24:35;;;;;;;13.45;6.38;;;-2.20;99.90;;;;;;5016615;28;20033;-79
2024/01/21 02:27:01;;;;;;;19.17;7.28;;;-2.10;99.90;;;;;;5028819;28;20031;-78
2024/01/21 02:29:27;;;;;;;20.50;8.10;;;-2.10;99.90;;;;;;5016667;28;20041;-78
2024/01/21 02:31:53;;;;;;;21.60;7.97;;;-2.10;99.90;;;;;;5017599;28;20043;-78
2024/01/21 02:34:20;;;;;;;14.35;6.82;;;-2.00;99.90;;;;;;5032693;28;20588;-78
2024/01/21 02:36:47;;;;;;;16.73;7.07;;;-2.00;99.90;;;;;;5022965;28;20039;-80
2024/01/21 02:39:12;;;;;;;17.65;7.13;;;-2.00;99.90;;;;;;5026233;28;20025;-78
2024/01/21 02:41:38;;;;;;;18.58;6.93;;;-2.00;99.90;;;;;;5018210;28;20025;-79
2024/01/21 02:44:04;;;;;;;14.77;6.80;;;-1.90;99.90;;;;;;5021702;28;20548;-78
2024/01/21 02:46:29;;;;;;;14.52;7.10;;;-1.90;99.90;;;;;;5029116;28;20049;-78
2024/01/21 02:48:55;;;;;;;14.88;6.32;;;-1.90;99.90;;;;;;5040329;28;20022;-79
2024/01/21 02:51:21;;;;;;;17.58;6.60;;;-2.00;99.90;;;;;;5028055;28;20021;-79
2024/01/21 02:53:46;;;;;;;15.13;6.28;;;-1.90;99.90;;;;;;5035282;28;20500;-79
2024/01/21 02:56:22;;;;;;;15.00;6.88;;;-1.90;99.90;;;;;;5036751;28;20108;-79
2024/01/21 02:58:51;;;;;;;18.88;7.28;;;-1.90;99.90;;;;;;5020332;28;20022;-79
2024/01/21 03:01:17;;;;;;;13.45;6.45;;;-1.90;99.90;;;;;;5016788;28;20037;-79
2024/01/21 03:03:43;;;;;;;14.98;6.00;;;-1.90;99.90;;;;;;5032589;28;20049;-79
2024/01/21 03:06:09;;;;;;;14.00;6.38;;;-1.90;99.90;;;;;;5037352;28;20473;-80
2024/01/21 03:08:34;;;;;;;17.88;7.65;;;-1.90;99.90;;;;;;5035365;28;20033;-79
2024/01/21 03:11:00;;;;;;;20.00;7.57;;;-1.90;99.90;;;;;;5016565;28;20528;-79
2024/01/21 03:13:26;;;;;;;17.75;6.95;;;-1.90;99.90;;;;;;5034833;28;20033;-79
2024/01/21 03:15:53;;;;;;;15.82;6.30;;;-1.90;99.90;;;;;;5035037;28;20051;-78
2024/01/21 03:18:18;;;;;;;15.60;6.55;;;-1.90;99.90;;;;;;5018139;28;20033;-80
2024/01/21 03:20:44;;;;;;;12.25;5.40;;;-1.90;99.90;;;;;;5018214;28;20052;-79
2024/01/21 03:23:10;;;;;;;17.27;7.05;;;-1.90;99.90;;;;;;5036727;28;20091;-79
2024/01/21 03:25:36;;;;;;;17.15;7.30;;;-1.90;99.90;;;;;;5013286;28;20138;-78
2024/01/21 03:28:03;;;;;;;16.17;6.10;;;-1.90;99.90;;;;;;5015249;28;20116;-79
2024/01/21 03:30:29;;;;;;;18.77;6.65;;;-1.90;99.90;;;;;;5017760;28;20025;-78
2024/01/21 03:32:54;;;;;;;19.20;6.80;;;-1.90;99.90;;;;;;5032726;28;20379;-79
2024/01/21 03:35:20;;;;;;;13.95;6.07;;;-1.90;99.90;;;;;;5040383;28;20040;-77
2024/01/21 03:37:46;;;;;;;16.58;6.95;;;-2.00;99.90;;;;;;5037841;28;20056;-78
2024/01/21 03:40:12;;;;;;;17.48;6.70;;;-2.00;99.90;;;;;;5025829;28;20026;-79
2024/01/21 03:42:38;;;;;;;15.18;5.78;;;-2.00;99.90;;;;;;5017726;28;20509;-78
2024/01/21 03:45:05;;;;;;;18.60;7.32;;;-2.10;99.90;;;;;;5021299;28;20037;-79
2024/01/21 03:47:31;;;;;;;15.45;6.53;;;-2.10;99.90;;;;;;5022662;28;20041;-79
2024/01/21 03:49:57;;;;;;;15.95;6.60;;;-2.10;99.90;;;;;;5019798;28;20033;-79
2024/01/21 03:52:23;;;;;;;13.52;5.75;;;-2.10;99.90;;;;;;5035376;28;20037;-80
2024/01/21 03:54:48;;;;;;;13.65;6.00;;;-2.10;99.90;;;;;;5038447;28;20025;-79
2024/01/21 03:57:14;;;;;;;15.50;6.75;;;-2.10;99.90;;;;;;5023442;28;20651;-79
2024/01/21 03:59:40;;;;;;;14.07;5.63;;;-2.10;99.90;;;;;;5022006;28;20143;-78
2024/01/21 04:02:06;;;;;;;15.38;6.18;;;-2.10;99.90;;;;;;5019429;28;20026;-80
2024/01/21 04:04:31;;;;;;;14.25;6.60;;;-2.10;99.90;;;;;;5020692;28;20030;-78
2024/01/21 04:06:57;;;;;;;14.65;5.78;;;-2.10;99.90;;;;;;5040138;28;20026;-78
2024/01/21 04:09:23;;;;;;;19.70;5.97;;;-2.20;99.90;;;;;;5021931;28;20033;-78
2024/01/21 04:11:52;;;;;;;15.70;6.65;;;-2.20;99.90;;;;;;5019635;28;20032;-80
2024/01/21 04:14:18;;;;;;;18.92;7.13;;;-2.20;99.90;;;;;;5036835;28;20031;-79
2024/01/21 04:16:43;;;;;;;15.82;6.60;;;-2.20;99.90;;;;;;5037451;28;20112;-78
2024/01/21 04:19:09;;;;;;;14.93;5.90;;;-2.20;99.90;;;;;;5023448;28;20629;-77
2024/01/21 04:21:36;;;;;;;22.92;7.50;;;-2.20;99.90;;;;;;5023175;28;20459;-77
2024/01/21 04:24:02;;;;;;;14.85;6.00;;;-2.30;99.90;;;;;;5019076;28;20036;-78
2024/01/21 04:26:29;;;;;;;15.40;6.28;;;-2.30;99.90;;;;;;5024213;28;20021;-79
2024/01/21 04:28:54;;;;;;;17.90;6.38;;;-2.30;99.90;;;;;;5022019;28;20032;-78
2024/01/21 04:31:20;;;;;;;17.92;6.68;;;-2.30;99.90;;;;;;5019865;28;20030;-79
2024/01/21 04:33:46;;;;;;;16.70;6.97;;;-2.40;99.90;;;;;;5039754;28;20122;-78
2024/01/21 04:36:22;;;;;;;15.93;6.55;;;-2.40;99.90;;;;;;5020053;28;20481;-78
2024/01/21 04:38:48;;;;;;;15.05;6.55;;;-2.50;99.90;;;;;;5019608;28;20029;-79
2024/01/21 04:41:15;;;;;;;16.02;6.63;;;-2.40;99.90;;;;;;5036568;28;20121;-79
2024/01/21 04:43:44;;;;;;;14.73;5.82;;;-2.50;99.90;;;;;;5036297;28;20505;-78
2024/01/21 04:46:09;;;;;;;19.05;6.18;;;-2.50;99.90;;;;;;5016877;28;20028;-78
2024/01/21 04:48:36;;;;;;;17.85;7.70;;;-2.50;99.90;;;;;;5003725;28;20037;-79
2024/01/21 04:51:02;;;;;;;16.13;6.93;;;-2.50;99.90;;;;;;5019179;28;20025;-78
2024/01/21 04:53:28;;;;;;;17.60;6.47;;;-2.50;99.90;;;;;;5019461;28;20057;-78
2024/01/21 04:55:54;;;;;;;16.15;5.93;;;-2.50;99.90;;;;;;5037523;28;20033;-79
2024/01/21 04:58:20;;;;;;;16.00;6.28;;;-2.50;99.90;;;;;;5018102;28;20029;-78
2024/01/21 05:00:45;;;;;;;14.63;6.32;;;-2.50;99.90;;;;;;5020575;28;20344;-79
2024/01/21 05:03:11;;;;;;;14.45;6.28;;;-2.50;99.90;;;;;;5034442;28;20036;-78
2024/01/21 05:05:37;;;;;;;17.83;6.38;;;-2.50;99.90;;;;;;5021837;28;20056;-80
2024/01/21 05:08:02;;;;;;;16.95;6.50;;;-2.50;99.90;;;;;;5019987;28;20470;-78
2024/01/21 05:10:28;;;;;;;16.33;6.03;;;-2.50;99.90;;;;;;5041106;28;20029;-79
2024/01/21 05:12:54;;;;;;;11.82;5.85;;;-2.50;99.90;;;;;;5022175;28;20068;-79
2024/01/21 05:15:19;;;;;;;13.30;6.88;;;-2.50;99.90;;;;;;5038915;28;20025;-80
2024/01/21 05:17:45;;;;;;;15.15;6.43;;;-2.50;99.90;;;;;;5038467;28;20025;-80
2024/01/21 05:20:11;;;;;;;19.05;6.72;;;-2.60;99.90;;;;;;5022907;28;20473;-78
2024/01/21 05:22:37;;;;;;;12.93;6.20;;;-2.60;99.90;;;;;;5041272;28;20026;-78
2024/01/21 05:25:03;;;;;;;14.80;5.97;;;-2.60;99.90;;;;;;5043712;28;20021;-79
2024/01/21 05:27:30;;;;;;;21.92;7.57;;;-2.50;99.90;;;;;;5040879;28;20432;-78
2024/01/21 05:29:55;;;;;;;14.30;5.78;;;-2.50;99.90;;;;;;5011098;28;20512;-80
2024/01/21 05:32:21;;;;;;;13.30;6.13;;;-2.50;99.90;;;;;;5036684;28;20037;-78
2024/01/21 05:34:47;;;;;;;10.45;5.45;;;-2.50;99.90;;;;;;5041544;28;20100;-79
2024/01/21 05:37:12;;;;;;;15.30;6.30;;;-2.50;99.90;;;;;;5037686;28;20045;-78
2024/01/21 05:39:38;;;;;;;16.85;7.18;;;-2.50;99.90;;;;;;5021362;28;20044;-80
2024/01/21 05:42:06;;;;;;;15.07;5.97;;;-2.50;99.90;;;;;;5022708;28;20425;-80
2024/01/21 05:44:32;;;;;;;14.40;6.22;;;-2.40;99.90;;;;;;5042738;28;20033;-79
2024/01/21 05:46:58;;;;;;;16.48;5.90;;;-2.40;99.90;;;;;;5024281;28;20485;-79
2024/01/21 05:49:24;;;;;;;16.88;6.07;;;-2.40;99.90;;;;;;5023319;28;20064;-79
2024/01/21 05:54:19;;;;;;;17.52;6.22;;;-2.30;99.90;;;;;;5048510;28;20087;-66
2024/01/21 05:56:44;;;;;;;13.68;5.75;;;-2.40;99.90;;;;;;5056448;28;20028;-66
2024/01/21 05:59:12;;;;;;;15.00;7.47;;;-2.40;99.90;;;;;;5072244;28;20047;-66
2024/01/21 06:01:38;;;;;;;17.33;6.60;;;-2.40;99.90;;;;;;5052375;28;20044;-66
2024/01/21 06:04:05;;;;;;;17.58;6.80;;;-2.40;99.90;;;;;;5072494;28;20059;-66
2024/01/21 06:06:31;;;;;;;16.27;6.63;;;-2.30;99.90;;;;;;5072745;28;20032;-66
2024/01/21 06:08:56;;;;;;;14.98;6.55;;;-2.30;99.90;;;;;;5072550;28;20029;-66
2024/01/21 06:11:22;;;;;;;14.73;6.68;;;-2.30;99.90;;;;;;5072679;28;20489;-66
2024/01/21 06:13:48;;;;;;;11.80;5.55;;;-2.30;99.90;;;;;;5072768;28;20033;-66
2024/01/21 06:16:17;;;;;;;18.23;6.80;;;-2.30;99.90;;;;;;5072853;28;20033;-66
2024/01/21 06:18:42;;;;;;;14.15;6.15;;;-2.30;99.90;;;;;;5072811;28;20032;-66
2024/01/21 06:21:08;;;;;;;14.63;6.25;;;-2.20;99.90;;;;;;5068372;28;20423;-67
2024/01/21 06:23:34;;;;;;;15.10;6.03;;;-2.20;99.90;;;;;;5052379;28;20029;-66
2024/01/21 06:25:59;;;;;;;13.27;5.97;;;-2.20;99.90;;;;;;5052521;28;20079;-66
2024/01/21 06:28:25;;;;;;;16.80;7.03;;;-2.20;99.90;;;;;;5052103;28;20082;-66
2024/01/21 06:30:50;;;;;;;19.50;6.72;;;-2.20;99.90;;;;;;5052278;28;20036;-66
2024/01/21 06:33:16;;;;;;;16.95;6.57;;;-2.20;99.90;;;;;;5052264;28;20076;-66
2024/01/21 06:35:41;;;;;;;14.10;6.15;;;-2.20;99.90;;;;;;5052577;28;20036;-66
2024/01/21 06:38:07;;;;;;;14.80;6.30;;;-2.10;99.90;;;;;;5052055;28;20049;-67
2024/01/21 06:40:33;;;;;;;16.38;5.63;;;-2.10;99.90;;;;;;5052177;28;20033;-66
2024/01/21 06:42:59;;;;;;;15.45;5.88;;;-2.10;99.90;;;;;;5052140;28;20107;-66
2024/01/21 06:45:24;;;;;;;16.08;5.80;;;-2.00;99.90;;;;;;5050720;28;20029;-66
2024/01/21 06:47:50;;;;;;;18.38;6.50;;;-2.00;99.90;;;;;;5053755;28;20076;-66
2024/01/21 06:50:16;;;;;;;13.48;6.13;;;-2.00;99.90;;;;;;5051745;28;20063;-66
2024/01/21 06:52:41;;;;;;;10.50;5.78;;;-2.00;99.90;;;;;;5065234;28;20039;-66
2024/01/21 06:55:08;;;;;;;18.17;6.03;;;-2.00;99.90;;;;;;5090595;28;20024;-66
2024/01/21 06:57:34;;;;;;;14.13;6.45;;;-2.00;99.90;;;;;;5091502;28;20074;-66
2024/01/21 07:00:00;;;;;;;13.95;6.18;;;-2.00;99.90;;;;;;5092058;28;20056;-67
2024/01/21 07:02:25;;;;;;;11.23;4.72;;;-2.00;99.90;;;;;;5091527;28;20055;-66
2024/01/21 07:04:51;;;;;;;13.35;5.40;;;-2.00;99.90;;;;;;5092349;28;20028;-66
2024/01/21 07:07:16;;;;;;;15.32;6.13;;;-2.00;99.90;;;;;;5090516;23;20037;-66
2024/01/21 07:09:42;;;;;;;19.13;6.65;;;-2.00;99.90;;;;;;5029077;28;20025;-66
2024/01/21 07:12:08;;;;;;;13.90;6.78;;;-1.90;99.90;;;;;;5029535;28;20037;-66
2024/01/21 07:14:34;;;;;;;14.68;5.82;;;-1.90;99.90;;;;;;5030644;28;20479;-66
2024/01/21 07:17:03;;;;;;;15.07;6.88;;;-1.90;99.90;;;;;;5032810;28;20037;-66
2024/01/21 07:19:29;;;;;;;14.93;6.53;;;-1.90;99.90;;;;;;5025654;28;20547;-66
2024/01/21 07:21:55;;;;;;;15.20;5.70;;;-1.80;99.90;;;;;;5019332;28;20108;-66
2024/01/21 07:24:20;;;;;;;17.92;6.15;;;-1.80;99.90;;;;;;5023915;28;20076;-66
2024/01/21 07:26:46;;;;;;;15.48;7.07;;;-1.80;99.90;;;;;;5029618;28;20022;-66
2024/01/21 07:29:13;;;;;;;14.50;6.25;;;-1.80;99.90;;;;;;5012705;28;20100;-66
2024/01/21 07:31:39;;;;;;;12.35;6.25;;;-1.70;99.90;;;;;;5018615;28;20026;-66
2024/01/21 07:34:09;;;;;;;12.82;5.90;;;-1.80;99.90;;;;;;5021801;28;20549;-66
2024/01/21 07:36:35;;;;;;;14.13;6.22;;;-1.70;99.90;;;;;;5027849;28;20385;-66
2024/01/21 07:39:01;;;;;;;18.15;6.88;;;-1.70;99.90;;;;;;5014087;28;20022;-66
2024/01/21 07:41:26;;;;;;;24.73;9.05;;;-1.70;99.90;;;;;;5007681;28;20404;-66
2024/01/21 07:43:52;;;;;;;40.00;16.27;;;-1.60;99.90;;;;;;5015178;28;20026;-66
2024/01/21 07:46:17;;;;;;;22.17;9.65;;;-1.70;99.90;;;;;;5006159;28;20029;-66
2024/01/21 07:48:43;;;;;;;27.20;10.55;;;-1.60;99.90;;;;;;5020049;28;20026;-66
2024/01/21 07:51:08;;;;;;;18.45;7.72;;;-1.60;99.90;;;;;;5025278;28;20080;-67
2024/01/21 07:53:34;;;;;;;19.77;8.27;;;-1.60;99.90;;;;;;5010157;28;20137;-66
2024/01/21 07:55:59;;;;;;;20.48;7.55;;;-1.50;99.90;;;;;;5020362;28;20032;-66
2024/01/21 07:58:25;;;;;;;17.13;7.45;;;-1.50;99.90;;;;;;5024218;28;20029;-66
2024/01/21 08:00:51;;;;;;;19.75;8.20;;;-1.40;99.90;;;;;;5026978;28;20033;-66
2024/01/21 08:03:17;;;;;;;17.08;7.00;;;-1.40;99.90;;;;;;5024036;28;20025;-66
2024/01/21 08:05:43;;;;;;;12.00;6.50;;;-1.40;99.90;;;;;;5009744;28;20096;-69
2024/01/21 08:08:08;;;;;;;16.48;7.47;;;-1.30;99.90;;;;;;5022510;28;20034;-66
2024/01/21 08:10:34;;;;;;;22.42;7.18;;;-1.20;99.90;;;;;;5015946;28;20034;-66
2024/01/21 08:13:00;;;;;;;14.07;6.50;;;-1.20;99.90;;;;;;5025578;28;20036;-66
2024/01/21 08:15:25;;;;;;;15.55;6.90;;;-1.20;99.90;;;;;;5018300;28;20018;-66
2024/01/21 08:17:51;;;;;;;15.32;6.60;;;-1.10;99.90;;;;;;5012067;28;20038;-66
2024/01/21 08:20:16;;;;;;;17.13;7.40;;;-1.20;99.90;;;;;;5029201;28;20033;-66
2024/01/21 08:22:43;;;;;;;17.27;7.30;;;-1.10;99.90;;;;;;5012528;28;20056;-66
2024/01/21 08:25:09;;;;;;;13.57;5.97;;;-1.10;99.90;;;;;;5026769;28;20010;-66
2024/01/21 08:27:35;;;;;;;20.80;7.60;;;-1.10;99.90;;;;;;5025023;28;20471;-66
2024/01/21 08:30:04;;;;;;;15.05;6.68;;;-1.00;99.90;;;;;;5015936;28;20045;-66
2024/01/21 08:32:29;;;;;;;21.17;7.18;;;-0.90;99.90;;;;;;5030420;28;20025;-66
2024/01/21 08:34:55;;;;;;;15.50;6.57;;;-0.90;99.90;;;;;;5007926;28;20108;-66
2024/01/21 08:37:21;;;;;;;17.15;6.38;;;-0.80;99.90;;;;;;5032644;28;20061;-67
2024/01/21 08:39:48;;;;;;;16.23;7.40;;;-0.80;99.90;;;;;;5030098;28;20029;-66
2024/01/21 08:42:14;;;;;;;14.45;7.50;;;-0.70;99.90;;;;;;5030198;28;20537;-67
2024/01/21 08:44:39;;;;;;;13.10;6.07;;;-0.70;99.90;;;;;;5031775;28;20030;-66
2024/01/21 08:47:05;;;;;;;13.50;5.78;;;-0.70;99.90;;;;;;5020322;28;20089;-66
2024/01/21 08:49:30;;;;;;;14.30;6.75;;;-0.60;99.90;;;;;;5026047;28;20511;-66
2024/01/21 08:51:56;;;;;;;22.73;6.82;;;-0.60;99.90;;;;;;5031415;28;20033;-66
2024/01/21 08:54:21;;;;;;;18.17;7.47;;;-0.60;99.90;;;;;;5031458;28;20380;-67
2024/01/21 08:56:48;;;;;;;17.25;7.53;;;-0.40;99.90;;;;;;5012056;28;20052;-66
2024/01/21 08:59:13;;;;;;;13.57;6.03;;;-0.50;99.90;;;;;;5032950;28;20570;-66
2024/01/21 09:01:39;;;;;;;18.73;6.85;;;-0.40;99.90;;;;;;5032883;28;20036;-67
2024/01/21 09:04:04;;;;;;;13.43;7.63;;;-0.40;99.90;;;;;;5026069;28;20072;-67
2024/01/21 09:06:30;;;;;;;15.55;6.70;;;-0.30;99.90;;;;;;5022918;28;20216;-67
2024/01/21 09:08:56;;;;;;;12.80;6.00;;;-0.30;99.90;;;;;;5024739;28;20061;-66
2024/01/21 09:11:23;;;;;;;14.40;6.22;;;-0.20;99.90;;;;;;5030092;28;20116;-66
2024/01/21 09:13:49;;;;;;;15.05;6.05;;;-0.20;99.90;;;;;;5023939;28;20021;-67
2024/01/21 09:16:21;;;;;;;20.17;8.68;;;-0.20;99.90;;;;;;5032291;28;20168;-67
2024/01/21 09:18:47;;;;;;;46.30;13.77;;;-0.10;99.90;;;;;;5030906;28;20025;-66
2024/01/21 09:21:12;;;;;;;30.17;11.40;;;-0.10;99.90;;;;;;5028844;28;20028;-67
2024/01/21 09:23:38;;;;;;;30.90;11.77;;;0.00;99.90;;;;;;5028568;28;20821;-66
2024/01/21 09:26:03;;;;;;;20.17;7.53;;;0.20;99.90;;;;;;5024687;28;20026;-66
2024/01/21 09:28:29;;;;;;;17.90;7.25;;;0.30;99.90;;;;;;5030092;28;20026;-66
2024/01/21 09:30:54;;;;;;;18.20;8.15;;;0.40;99.90;;;;;;5025172;28;20412;-66
2024/01/21 09:33:20;;;;;;;18.08;7.65;;;0.60;99.90;;;;;;5031255;28;20103;-67
2024/01/21 09:35:46;;;;;;;17.00;6.90;;;0.80;99.90;;;;;;5024372;28;20499;-67
2024/01/21 09:38:14;;;;;;;15.30;7.85;;;0.90;99.90;;;;;;5014883;28;20579;-67
2024/01/21 09:40:40;;;;;;;16.83;7.60;;;1.10;99.90;;;;;;5029029;28;20527;-66
2024/01/21 09:43:06;;;;;;;24.83;10.80;;;1.30;99.90;;;;;;5030719;28;20455;-67
2024/01/21 09:45:37;;;;;;;21.23;9.48;;;1.30;99.90;;;;;;5031437;28;20021;-67
2024/01/21 09:48:05;;;;;;;19.85;7.85;;;1.30;99.90;;;;;;5028850;28;20032;-66
2024/01/21 09:50:32;;;;;;;18.90;9.43;;;1.30;99.90;;;;;;4993448;28;20137;-67
2024/01/21 09:52:58;;;;;;;18.77;9.68;;;1.40;99.90;;;;;;5025883;28;20104;-67
2024/01/21 09:55:24;;;;;;;21.90;10.73;;;1.50;99.90;;;;;;5023016;28;20025;-67
2024/01/21 09:57:51;;;;;;;22.23;9.45;;;1.50;99.90;;;;;;5007470;28;20045;-67
2024/01/21 10:00:17;;;;;;;16.13;8.30;;;1.60;99.90;;;;;;5030020;28;20068;-66
2024/01/21 10:02:44;;;;;;;15.65;7.22;;;1.80;99.90;;;;;;5020936;28;20030;-67
2024/01/21 10:05:10;;;;;;;15.73;7.75;;;1.90;99.90;;;;;;5028120;28;20025;-66
2024/01/21 10:07:37;;;;;;;30.45;11.75;;;2.10;99.90;;;;;;5024900;28;20030;-67
2024/01/21 10:10:03;;;;;;;18.55;8.55;;;2.60;99.90;;;;;;5028104;28;20026;-67
2024/01/21 10:12:28;;;;;;;18.63;8.38;;;3.10;99.90;;;;;;5029036;28;20403;-67
2024/01/21 10:14:54;;;;;;;19.55;9.02;;;3.10;99.90;;;;;;5020068;28;20079;-66
2024/01/21 10:17:24;;;;;;;16.83;8.38;;;3.00;99.90;;;;;;5029792;28;20043;-67
2024/01/21 10:19:52;;;;;;;14.52;7.45;;;3.00;99.90;;;;;;5022204;28;20026;-67
2024/01/21 10:22:18;;;;;;;17.52;7.22;;;3.00;99.90;;;;;;5019602;28;20379;-67
2024/01/21 10:24:46;;;;;;;17.75;7.70;;;3.00;99.90;;;;;;5017938;28;20097;-66
2024/01/21 10:27:12;;;;;;;13.40;7.38;;;3.10;99.90;;;;;;5025541;28;20026;-67
2024/01/21 10:29:43;;;;;;;21.13;9.75;;;3.10;99.90;;;;;;5007209;28;20025;-67
2024/01/21 10:32:09;;;;;;;20.70;8.15;;;3.00;99.90;;;;;;5018715;28;20483;-66
2024/01/21 10:34:37;;;;;;;19.77;9.27;;;3.00;99.90;;;;;;5024355;28;20381;-67
2024/01/21 10:37:04;;;;;;;27.77;11.82;;;2.90;99.90;;;;;;5022825;28;20037;-67
2024/01/21 10:39:33;;;;;;;17.80;8.32;;;2.80;99.90;;;;;;5018280;28;20076;-67
2024/01/21 10:42:00;;;;;;;14.35;7.47;;;2.80;99.90;;;;;;5023773;28;20029;-67
2024/01/21 10:44:27;;;;;;;13.20;6.80;;;2.70;99.90;;;;;;5024688;28;20364;-67
2024/01/21 10:46:54;;;;;;;14.75;7.43;;;2.80;99.90;;;;;;5031020;28;20495;-67
2024/01/21 10:49:20;;;;;;;15.75;7.15;;;2.70;99.90;;;;;;5028478;28;20052;-66
2024/01/21 10:51:46;;;;;;;16.58;8.23;;;2.70;99.90;;;;;;5023409;28;20379;-67
2024/01/21 10:54:13;;;;;;;18.23;8.13;;;2.70;99.90;;;;;;5024743;28;20033;-67
2024/01/21 10:56:40;;;;;;;17.92;8.50;;;2.60;99.90;;;;;;5002459;28;20415;-67
2024/01/21 10:59:06;;;;;;;16.08;8.55;;;2.50;99.90;;;;;;5030618;28;20021;-67
2024/01/21 11:01:33;;;;;;;15.82;7.57;;;2.50;99.90;;;;;;5029741;28;20507;-66
2024/01/21 11:04:11;;;;;;;14.45;7.20;;;2.40;99.90;;;;;;5029350;28;20029;-67
2024/01/21 11:06:36;;;;;;;20.20;8.95;;;2.40;99.90;;;;;;5015401;28;20029;-66
2024/01/21 11:09:03;;;;;;;18.13;8.40;;;2.60;99.90;;;;;;5020964;28;20025;-67
2024/01/21 11:11:30;;;;;;;19.70;8.75;;;2.60;99.90;;;;;;5021548;28;20018;-67
2024/01/21 11:13:56;;;;;;;22.92;9.18;;;2.60;99.90;;;;;;5018811;28;20381;-67
2024/01/21 11:16:30;;;;;;;19.25;8.07;;;2.60;99.90;;;;;;5026314;28;20022;-67
2024/01/21 11:19:08;;;;;;;17.70;9.45;;;2.60;99.90;;;;;;5027176;28;20482;-67
2024/01/21 11:21:40;;;;;;;18.70;6.97;;;2.80;99.90;;;;;;5024356;28;20487;-67
2024/01/21 11:24:10;;;;;;;14.98;7.35;;;2.90;99.90;;;;;;5026499;28;20030;-66
2024/01/21 11:26:37;;;;;;;17.50;6.60;;;3.10;99.90;;;;;;5029831;28;20109;-67
2024/01/21 11:29:24;;;;;;;15.70;6.63;;;3.20;99.90;;;;;;5025967;28;20388;-67
2024/01/21 11:32:02;;;;;;;13.52;6.95;;;3.00;99.90;;;;;;4998834;28;20136;-67
2024/01/21 11:34:31;;;;;;;17.73;7.80;;;3.10;99.90;;;;;;5024235;28;20807;-67
2024/01/21 11:36:57;;;;;;;15.32;6.93;;;3.30;99.90;;;;;;5023358;28;20030;-67
2024/01/21 11:39:24;;;;;;;16.15;8.10;;;3.30;99.90;;;;;;5025396;28;20479;-67
2024/01/21 11:41:50;;;;;;;13.07;5.75;;;3.20;99.90;;;;;;5001992;28;20034;-67
2024/01/21 11:44:24;;;;;;;15.32;7.50;;;3.20;99.90;;;;;;5023590;28;20022;-67
2024/01/21 11:46:52;;;;;;;14.25;6.93;;;3.10;99.90;;;;;;5026794;28;20365;-66
2024/01/21 11:49:20;;;;;;;12.48;6.97;;;3.20;99.90;;;;;;5019463;28;20014;-67
2024/01/21 11:51:46;;;;;;;11.63;5.80;;;3.10;99.90;;;;;;5023371;28;20435;-67
2024/01/21 11:54:12;;;;;;;12.95;6.15;;;3.20;99.90;;;;;;5021499;28;20076;-67
2024/01/21 11:56:39;;;;;;;16.23;6.82;;;3.20;99.90;;;;;;5006703;28;20025;-67
2024/01/21 11:59:08;;;;;;;15.93;8.00;;;3.10;99.90;;;;;;5020272;28;20054;-67
2024/01/21 12:01:34;;;;;;;13.35;6.60;;;3.00;99.90;;;;;;5023968;28;20037;-67
2024/01/21 12:04:04;;;;;;;14.82;7.00;;;3.00;99.90;;;;;;5022818;28;20112;-67
2024/01/21 12:06:33;;;;;;;16.83;7.25;;;3.10;99.90;;;;;;5022801;28;20056;-67
2024/01/21 12:09:00;;;;;;;14.57;7.50;;;3.10;99.90;;;;;;5031429;28;20801;-67
2024/01/21 12:11:26;;;;;;;16.70;7.47;;;3.30;99.90;;;;;;5026563;28;20423;-67
2024/01/21 12:13:52;;;;;;;13.23;6.82;;;3.20;99.90;;;;;;5026383;28;20026;-67
2024/01/21 12:16:18;;;;;;;14.88;6.88;;;3.20;99.90;;;;;;5029131;28;20108;-67
2024/01/21 12:18:44;;;;;;;17.63;6.93;;;3.30;99.90;;;;;;5022120;28;20034;-67
2024/01/21 12:21:14;;;;;;;12.93;6.97;;;3.40;99.90;;;;;;5028251;28;20036;-67
2024/01/21 12:23:47;;;;;;;16.00;7.45;;;3.40;99.90;;;;;;5030984;28;20488;-67
2024/01/21 12:26:17;;;;;;;13.60;7.55;;;3.60;99.90;;;;;;5033788;28;20419;-67
2024/01/21 12:29:04;;;;;;;16.08;6.57;;;3.70;99.90;;;;;;5028217;28;20444;-67
2024/01/21 12:31:31;;;;;;;29.42;11.65;;;3.90;99.90;;;;;;5033650;28;20057;-67
2024/01/21 12:33:57;;;;;;;17.67;8.30;;;4.00;99.90;;;;;;5029668;28;20029;-67
2024/01/21 12:36:23;;;;;;;17.90;9.57;;;4.20;99.90;;;;;;5024651;28;20029;-67